Fairfax, Vermont
Current Conditions -  °F | °C
As of 10:01 AM on Monday 24 Nov 2014 (Local Time) from KBTV Reporting Station
Overcast Overcast  
Wind Chill: 13°   Ceiling: 2400
Heat Index: 13°   Visibility: 10mi
Dew Point: 11°   Wind: 9mph
Humidity: 87%   Direction: 180°S
Pressure: 29.51"   Gusts: NA
Location:  44.67°N, 73.01°W
Report Text: KBTV 241501Z 18008KT 10SM SCT013 BKN024 OVC029 13/11 A2951 RMK AO2 DZE1457 P0000 T01330111
Loading
Personal Weather Stations






























Interactive Weather Map New forecast layout! Learn more

10-Day Weather Forecast

Advertisements
Track Severe Weather on mobile